sensor_id;sensor_type;location;lat;lon;timestamp;P1;durP1;ratioP1;P2;durP2;ratioP2
11763;SDS011;5939;56.522;14.950;2024-01-15T00:01:33;1.73;;;1.00;;
11763;SDS011;5939;56.522;14.950;2024-01-15T00:03:59;1.17;;;0.70;;
11763;SDS011;5939;56.522;14.950;2024-01-15T00:06:25;2.53;;;0.90;;
11763;SDS011;5939;56.522;14.950;2024-01-15T00:08:52;3.30;;;0.90;;
11763;SDS011;5939;56.522;14.950;2024-01-15T00:11:17;2.67;;;0.97;;
11763;SDS011;5939;56.522;14.950;2024-01-15T00:13:43;1.73;;;0.90;;
11763;SDS011;5939;56.522;14.950;2024-01-15T00:16:09;3.37;;;1.00;;
11763;SDS011;5939;56.522;14.950;2024-01-15T00:18:35;2.47;;;1.20;;
11763;SDS011;5939;56.522;14.950;2024-01-15T00:21:01;2.60;;;0.93;;
11763;SDS011;5939;56.522;14.950;2024-01-15T00:23:26;2.97;;;0.97;;
11763;SDS011;5939;56.522;14.950;2024-01-15T00:25:52;3.13;;;0.90;;
11763;SDS011;5939;56.522;14.950;2024-01-15T00:28:18;1.70;;;0.90;;
11763;SDS011;5939;56.522;14.950;2024-01-15T00:30:43;2.90;;;1.30;;
11763;SDS011;5939;56.522;14.950;2024-01-15T00:33:09;4.60;;;1.20;;
11763;SDS011;5939;56.522;14.950;2024-01-15T00:35:37;1.43;;;1.03;;
11763;SDS011;5939;56.522;14.950;2024-01-15T00:38:03;3.90;;;1.50;;
11763;SDS011;5939;56.522;14.950;2024-01-15T00:40:28;5.10;;;1.60;;
11763;SDS011;5939;56.522;14.950;2024-01-15T00:42:54;6.73;;;1.93;;
11763;SDS011;5939;56.522;14.950;2024-01-15T00:45:20;2.23;;;1.20;;
11763;SDS011;5939;56.522;14.950;2024-01-15T00:47:45;1.93;;;1.00;;
11763;SDS011;5939;56.522;14.950;2024-01-15T00:50:11;1.73;;;1.07;;
11763;SDS011;5939;56.522;14.950;2024-01-15T00:52:37;3.97;;;1.30;;
11763;SDS011;5939;56.522;14.950;2024-01-15T00:55:03;4.43;;;1.03;;
11763;SDS011;5939;56.522;14.950;2024-01-15T00:57:30;3.63;;;1.07;;
11763;SDS011;5939;56.522;14.950;2024-01-15T00:59:55;2.70;;;1.00;;
11763;SDS011;5939;56.522;14.950;2024-01-15T01:02:21;4.07;;;1.20;;
11763;SDS011;5939;56.522;14.950;2024-01-15T01:04:46;1.47;;;1.03;;
11763;SDS011;5939;56.522;14.950;2024-01-15T01:07:12;3.03;;;1.37;;
11763;SDS011;5939;56.522;14.950;2024-01-15T01:09:38;1.97;;;0.90;;
11763;SDS011;5939;56.522;14.950;2024-01-15T01:12:04;3.60;;;1.50;;
11763;SDS011;5939;56.522;14.950;2024-01-15T01:14:29;0.90;;;0.90;;
11763;SDS011;5939;56.522;14.950;2024-01-15T01:16:55;2.30;;;1.30;;
11763;SDS011;5939;56.522;14.950;2024-01-15T01:19:21;2.37;;;1.03;;
11763;SDS011;5939;56.522;14.950;2024-01-15T01:21:46;3.90;;;1.23;;
11763;SDS011;5939;56.522;14.950;2024-01-15T01:24:12;2.20;;;0.83;;
11763;SDS011;5939;56.522;14.950;2024-01-15T01:26:38;3.57;;;1.10;;
11763;SDS011;5939;56.522;14.950;2024-01-15T01:29:03;2.40;;;1.10;;
11763;SDS011;5939;56.522;14.950;2024-01-15T01:31:29;3.67;;;1.40;;
11763;SDS011;5939;56.522;14.950;2024-01-15T01:33:55;3.83;;;1.20;;
11763;SDS011;5939;56.522;14.950;2024-01-15T01:36:20;4.27;;;1.07;;
11763;SDS011;5939;56.522;14.950;2024-01-15T01:38:46;1.53;;;0.90;;
11763;SDS011;5939;56.522;14.950;2024-01-15T01:41:12;2.77;;;1.07;;
11763;SDS011;5939;56.522;14.950;2024-01-15T01:43:37;2.93;;;1.10;;
11763;SDS011;5939;56.522;14.950;2024-01-15T01:46:03;1.73;;;0.97;;
11763;SDS011;5939;56.522;14.950;2024-01-15T01:48:30;2.20;;;0.90;;
11763;SDS011;5939;56.522;14.950;2024-01-15T01:51:00;3.50;;;1.20;;
11763;SDS011;5939;56.522;14.950;2024-01-15T01:53:29;3.17;;;1.23;;
11763;SDS011;5939;56.522;14.950;2024-01-15T01:55:57;2.17;;;1.33;;
11763;SDS011;5939;56.522;14.950;2024-01-15T01:58:23;1.37;;;1.10;;
11763;SDS011;5939;56.522;14.950;2024-01-15T02:00:50;2.37;;;1.10;;
11763;SDS011;5939;56.522;14.950;2024-01-15T02:03:16;2.17;;;1.27;;
11763;SDS011;5939;56.522;14.950;2024-01-15T02:05:42;4.30;;;1.20;;
11763;SDS011;5939;56.522;14.950;2024-01-15T02:08:09;3.33;;;1.60;;
11763;SDS011;5939;56.522;14.950;2024-01-15T02:10:35;2.03;;;1.00;;
11763;SDS011;5939;56.522;14.950;2024-01-15T02:13:01;2.57;;;0.90;;
11763;SDS011;5939;56.522;14.950;2024-01-15T02:15:27;1.40;;;0.90;;
11763;SDS011;5939;56.522;14.950;2024-01-15T02:20:26;4.23;;;0.87;;
11763;SDS011;5939;56.522;14.950;2024-01-15T02:22:51;2.43;;;0.97;;
11763;SDS011;5939;56.522;14.950;2024-01-15T02:25:18;2.90;;;1.13;;
11763;SDS011;5939;56.522;14.950;2024-01-15T02:27:43;2.17;;;1.20;;
11763;SDS011;5939;56.522;14.950;2024-01-15T02:30:11;1.30;;;1.00;;
11763;SDS011;5939;56.522;14.950;2024-01-15T02:32:38;1.40;;;0.87;;
11763;SDS011;5939;56.522;14.950;2024-01-15T02:35:04;2.70;;;0.90;;
11763;SDS011;5939;56.522;14.950;2024-01-15T02:37:30;3.30;;;1.03;;
11763;SDS011;5939;56.522;14.950;2024-01-15T02:39:55;2.70;;;1.00;;
11763;SDS011;5939;56.522;14.950;2024-01-15T02:42:21;1.30;;;0.80;;
11763;SDS011;5939;56.522;14.950;2024-01-15T02:44:47;2.90;;;1.00;;
11763;SDS011;5939;56.522;14.950;2024-01-15T02:47:13;3.77;;;1.10;;
11763;SDS011;5939;56.522;14.950;2024-01-15T02:49:39;2.33;;;1.17;;
11763;SDS011;5939;56.522;14.950;2024-01-15T02:52:05;5.23;;;1.20;;
11763;SDS011;5939;56.522;14.950;2024-01-15T02:54:31;3.33;;;1.07;;
11763;SDS011;5939;56.522;14.950;2024-01-15T02:56:57;3.63;;;0.90;;
11763;SDS011;5939;56.522;14.950;2024-01-15T02:59:22;3.23;;;1.20;;
11763;SDS011;5939;56.522;14.950;2024-01-15T03:01:48;3.07;;;1.17;;
11763;SDS011;5939;56.522;14.950;2024-01-15T03:04:13;1.70;;;0.90;;
11763;SDS011;5939;56.522;14.950;2024-01-15T03:06:39;5.00;;;1.20;;
11763;SDS011;5939;56.522;14.950;2024-01-15T03:09:05;2.23;;;1.07;;
11763;SDS011;5939;56.522;14.950;2024-01-15T03:11:36;2.30;;;1.10;;
11763;SDS011;5939;56.522;14.950;2024-01-15T03:14:03;2.03;;;0.97;;
11763;SDS011;5939;56.522;14.950;2024-01-15T03:16:29;1.73;;;1.30;;
11763;SDS011;5939;56.522;14.950;2024-01-15T03:18:55;5.17;;;1.30;;
11763;SDS011;5939;56.522;14.950;2024-01-15T03:21:20;3.57;;;1.00;;
11763;SDS011;5939;56.522;14.950;2024-01-15T03:23:46;1.60;;;1.10;;
11763;SDS011;5939;56.522;14.950;2024-01-15T03:26:11;2.17;;;1.10;;
11763;SDS011;5939;56.522;14.950;2024-01-15T03:28:37;1.97;;;1.50;;
11763;SDS011;5939;56.522;14.950;2024-01-15T03:31:03;3.40;;;0.90;;
11763;SDS011;5939;56.522;14.950;2024-01-15T03:33:28;1.30;;;1.10;;
11763;SDS011;5939;56.522;14.950;2024-01-15T03:35:54;2.73;;;1.10;;
11763;SDS011;5939;56.522;14.950;2024-01-15T03:38:20;3.73;;;1.40;;
11763;SDS011;5939;56.522;14.950;2024-01-15T03:40:45;1.07;;;0.63;;
11763;SDS011;5939;56.522;14.950;2024-01-15T03:43:11;3.43;;;1.00;;
11763;SDS011;5939;56.522;14.950;2024-01-15T03:45:37;2.50;;;1.20;;
11763;SDS011;5939;56.522;14.950;2024-01-15T03:48:03;2.37;;;1.07;;
11763;SDS011;5939;56.522;14.950;2024-01-15T03:50:29;2.63;;;0.90;;
11763;SDS011;5939;56.522;14.950;2024-01-15T03:52:54;1.93;;;0.90;;
11763;SDS011;5939;56.522;14.950;2024-01-15T03:55:20;3.10;;;1.17;;
11763;SDS011;5939;56.522;14.950;2024-01-15T03:57:46;3.17;;;1.10;;
11763;SDS011;5939;56.522;14.950;2024-01-15T04:00:11;1.97;;;1.00;;
11763;SDS011;5939;56.522;14.950;2024-01-15T04:02:39;3.17;;;1.43;;
11763;SDS011;5939;56.522;14.950;2024-01-15T04:05:05;2.97;;;0.90;;
11763;SDS011;5939;56.522;14.950;2024-01-15T04:07:32;2.73;;;1.03;;
11763;SDS011;5939;56.522;14.950;2024-01-15T04:09:57;4.37;;;1.70;;
11763;SDS011;5939;56.522;14.950;2024-01-15T04:12:24;1.93;;;1.20;;
11763;SDS011;5939;56.522;14.950;2024-01-15T04:14:50;3.97;;;1.20;;
11763;SDS011;5939;56.522;14.950;2024-01-15T04:17:15;3.10;;;0.83;;
11763;SDS011;5939;56.522;14.950;2024-01-15T04:19:43;4.20;;;1.00;;
11763;SDS011;5939;56.522;14.950;2024-01-15T04:22:09;1.93;;;1.13;;
11763;SDS011;5939;56.522;14.950;2024-01-15T04:24:35;2.93;;;0.97;;
11763;SDS011;5939;56.522;14.950;2024-01-15T04:27:00;2.87;;;1.50;;
11763;SDS011;5939;56.522;14.950;2024-01-15T04:29:26;2.63;;;1.00;;
11763;SDS011;5939;56.522;14.950;2024-01-15T04:31:52;3.73;;;1.20;;
11763;SDS011;5939;56.522;14.950;2024-01-15T04:34:18;2.70;;;1.47;;
11763;SDS011;5939;56.522;14.950;2024-01-15T04:36:44;2.20;;;0.90;;
11763;SDS011;5939;56.522;14.950;2024-01-15T04:39:09;2.57;;;1.00;;
11763;SDS011;5939;56.522;14.950;2024-01-15T04:41:36;3.03;;;1.43;;
11763;SDS011;5939;56.522;14.950;2024-01-15T04:44:02;3.57;;;0.93;;
11763;SDS011;5939;56.522;14.950;2024-01-15T04:46:28;1.80;;;0.90;;
11763;SDS011;5939;56.522;14.950;2024-01-15T04:48:53;3.63;;;1.10;;
11763;SDS011;5939;56.522;14.950;2024-01-15T04:51:19;3.20;;;1.10;;
11763;SDS011;5939;56.522;14.950;2024-01-15T04:53:45;2.80;;;0.80;;
11763;SDS011;5939;56.522;14.950;2024-01-15T04:56:10;2.47;;;0.97;;
11763;SDS011;5939;56.522;14.950;2024-01-15T04:58:36;1.87;;;1.00;;
11763;SDS011;5939;56.522;14.950;2024-01-15T05:01:02;3.97;;;0.97;;
11763;SDS011;5939;56.522;14.950;2024-01-15T05:03:28;2.97;;;1.03;;
11763;SDS011;5939;56.522;14.950;2024-01-15T05:05:54;2.70;;;1.10;;
11763;SDS011;5939;56.522;14.950;2024-01-15T05:08:20;4.57;;;0.80;;
11763;SDS011;5939;56.522;14.950;2024-01-15T05:10:46;2.57;;;1.27;;
11763;SDS011;5939;56.522;14.950;2024-01-15T05:13:12;2.37;;;0.90;;
11763;SDS011;5939;56.522;14.950;2024-01-15T05:15:38;1.37;;;0.90;;
11763;SDS011;5939;56.522;14.950;2024-01-15T05:18:04;1.23;;;0.80;;
11763;SDS011;5939;56.522;14.950;2024-01-15T05:20:30;1.50;;;0.80;;
11763;SDS011;5939;56.522;14.950;2024-01-15T05:22:56;1.73;;;1.20;;
11763;SDS011;5939;56.522;14.950;2024-01-15T05:25:21;6.03;;;1.30;;
11763;SDS011;5939;56.522;14.950;2024-01-15T05:27:47;1.60;;;1.07;;
11763;SDS011;5939;56.522;14.950;2024-01-15T05:30:14;2.27;;;1.00;;
11763;SDS011;5939;56.522;14.950;2024-01-15T05:32:39;1.10;;;1.00;;
11763;SDS011;5939;56.522;14.950;2024-01-15T05:35:05;4.77;;;1.30;;
11763;SDS011;5939;56.522;14.950;2024-01-15T05:37:31;1.83;;;1.00;;
11763;SDS011;5939;56.522;14.950;2024-01-15T05:39:57;1.53;;;0.97;;
11763;SDS011;5939;56.522;14.950;2024-01-15T05:42:22;1.00;;;0.83;;
11763;SDS011;5939;56.522;14.950;2024-01-15T05:44:48;2.30;;;1.10;;
11763;SDS011;5939;56.522;14.950;2024-01-15T05:47:14;3.57;;;1.20;;
11763;SDS011;5939;56.522;14.950;2024-01-15T05:49:39;3.20;;;1.13;;
11763;SDS011;5939;56.522;14.950;2024-01-15T05:52:05;4.00;;;1.03;;
11763;SDS011;5939;56.522;14.950;2024-01-15T05:54:31;3.47;;;1.03;;
11763;SDS011;5939;56.522;14.950;2024-01-15T05:56:57;2.47;;;1.57;;
11763;SDS011;5939;56.522;14.950;2024-01-15T05:59:22;1.57;;;0.80;;
11763;SDS011;5939;56.522;14.950;2024-01-15T06:01:48;3.77;;;1.17;;
11763;SDS011;5939;56.522;14.950;2024-01-15T06:04:14;2.10;;;0.90;;
11763;SDS011;5939;56.522;14.950;2024-01-15T06:06:39;2.97;;;1.37;;
11763;SDS011;5939;56.522;14.950;2024-01-15T06:09:05;2.00;;;1.33;;
11763;SDS011;5939;56.522;14.950;2024-01-15T06:11:31;0.80;;;0.80;;
11763;SDS011;5939;56.522;14.950;2024-01-15T06:13:57;1.73;;;1.10;;
11763;SDS011;5939;56.522;14.950;2024-01-15T06:16:23;0.93;;;0.83;;
11763;SDS011;5939;56.522;14.950;2024-01-15T06:18:49;1.83;;;1.00;;
11763;SDS011;5939;56.522;14.950;2024-01-15T06:21:15;3.67;;;1.17;;
11763;SDS011;5939;56.522;14.950;2024-01-15T06:23:41;2.03;;;0.97;;
11763;SDS011;5939;56.522;14.950;2024-01-15T06:26:07;2.70;;;1.07;;
11763;SDS011;5939;56.522;14.950;2024-01-15T06:28:33;2.40;;;1.10;;
11763;SDS011;5939;56.522;14.950;2024-01-15T06:30:58;3.67;;;1.07;;
11763;SDS011;5939;56.522;14.950;2024-01-15T06:33:24;2.37;;;0.90;;
11763;SDS011;5939;56.522;14.950;2024-01-15T06:35:50;4.33;;;1.20;;
11763;SDS011;5939;56.522;14.950;2024-01-15T06:38:16;3.37;;;0.97;;
11763;SDS011;5939;56.522;14.950;2024-01-15T06:40:41;2.27;;;1.10;;
11763;SDS011;5939;56.522;14.950;2024-01-15T06:43:13;3.23;;;1.23;;
11763;SDS011;5939;56.522;14.950;2024-01-15T06:45:40;1.73;;;1.00;;
11763;SDS011;5939;56.522;14.950;2024-01-15T06:48:06;2.60;;;0.90;;
11763;SDS011;5939;56.522;14.950;2024-01-15T06:50:32;1.60;;;0.80;;
11763;SDS011;5939;56.522;14.950;2024-01-15T06:52:58;1.53;;;1.17;;
11763;SDS011;5939;56.522;14.950;2024-01-15T06:55:24;2.17;;;1.10;;
11763;SDS011;5939;56.522;14.950;2024-01-15T06:57:50;3.37;;;1.60;;
11763;SDS011;5939;56.522;14.950;2024-01-15T07:00:17;2.47;;;0.90;;
11763;SDS011;5939;56.522;14.950;2024-01-15T07:02:44;1.10;;;1.00;;
11763;SDS011;5939;56.522;14.950;2024-01-15T07:05:10;4.20;;;1.17;;
11763;SDS011;5939;56.522;14.950;2024-01-15T07:07:36;2.17;;;1.13;;
11763;SDS011;5939;56.522;14.950;2024-01-15T07:10:02;4.93;;;1.20;;
11763;SDS011;5939;56.522;14.950;2024-01-15T07:12:28;3.93;;;1.37;;
11763;SDS011;5939;56.522;14.950;2024-01-15T07:14:55;3.30;;;1.10;;
11763;SDS011;5939;56.522;14.950;2024-01-15T07:17:21;1.90;;;0.93;;
11763;SDS011;5939;56.522;14.950;2024-01-15T07:19:47;1.63;;;1.00;;
11763;SDS011;5939;56.522;14.950;2024-01-15T07:22:13;2.50;;;1.00;;
11763;SDS011;5939;56.522;14.950;2024-01-15T07:24:40;2.97;;;1.20;;
11763;SDS011;5939;56.522;14.950;2024-01-15T07:27:05;3.43;;;1.07;;
11763;SDS011;5939;56.522;14.950;2024-01-15T07:29:31;2.57;;;1.07;;
11763;SDS011;5939;56.522;14.950;2024-01-15T07:31:58;3.53;;;1.13;;
11763;SDS011;5939;56.522;14.950;2024-01-15T07:34:23;3.37;;;1.20;;
11763;SDS011;5939;56.522;14.950;2024-01-15T07:36:49;3.30;;;0.93;;
11763;SDS011;5939;56.522;14.950;2024-01-15T07:39:15;3.20;;;1.33;;
11763;SDS011;5939;56.522;14.950;2024-01-15T07:41:40;4.57;;;1.40;;
11763;SDS011;5939;56.522;14.950;2024-01-15T07:44:06;2.77;;;0.90;;
11763;SDS011;5939;56.522;14.950;2024-01-15T07:46:32;3.13;;;1.13;;
11763;SDS011;5939;56.522;14.950;2024-01-15T07:48:57;3.37;;;1.30;;
11763;SDS011;5939;56.522;14.950;2024-01-15T07:51:23;2.17;;;1.30;;
11763;SDS011;5939;56.522;14.950;2024-01-15T07:53:49;3.20;;;1.00;;
11763;SDS011;5939;56.522;14.950;2024-01-15T07:56:15;2.17;;;1.10;;
11763;SDS011;5939;56.522;14.950;2024-01-15T07:58:41;2.37;;;1.10;;
11763;SDS011;5939;56.522;14.950;2024-01-15T08:01:07;4.10;;;1.53;;
11763;SDS011;5939;56.522;14.950;2024-01-15T08:03:33;2.87;;;1.07;;
11763;SDS011;5939;56.522;14.950;2024-01-15T08:05:59;2.33;;;1.13;;
11763;SDS011;5939;56.522;14.950;2024-01-15T08:08:25;3.03;;;1.17;;
11763;SDS011;5939;56.522;14.950;2024-01-15T08:10:54;2.17;;;1.10;;
11763;SDS011;5939;56.522;14.950;2024-01-15T08:13:20;1.30;;;1.10;;
11763;SDS011;5939;56.522;14.950;2024-01-15T08:15:46;2.70;;;1.20;;
11763;SDS011;5939;56.522;14.950;2024-01-15T08:18:11;2.30;;;1.00;;
11763;SDS011;5939;56.522;14.950;2024-01-15T08:20:37;3.13;;;1.27;;
11763;SDS011;5939;56.522;14.950;2024-01-15T08:23:03;4.10;;;1.30;;
11763;SDS011;5939;56.522;14.950;2024-01-15T08:25:29;3.77;;;1.30;;
11763;SDS011;5939;56.522;14.950;2024-01-15T08:27:56;2.63;;;1.10;;
11763;SDS011;5939;56.522;14.950;2024-01-15T08:30:22;1.63;;;1.00;;
11763;SDS011;5939;56.522;14.950;2024-01-15T08:32:52;1.43;;;0.90;;
11763;SDS011;5939;56.522;14.950;2024-01-15T08:35:18;1.70;;;1.30;;
11763;SDS011;5939;56.522;14.950;2024-01-15T08:37:48;2.30;;;1.00;;
11763;SDS011;5939;56.522;14.950;2024-01-15T08:40:14;3.03;;;1.20;;
11763;SDS011;5939;56.522;14.950;2024-01-15T08:42:40;4.27;;;1.20;;
11763;SDS011;5939;56.522;14.950;2024-01-15T08:45:06;1.63;;;1.33;;
11763;SDS011;5939;56.522;14.950;2024-01-15T08:47:33;4.10;;;1.10;;
11763;SDS011;5939;56.522;14.950;2024-01-15T08:49:59;2.50;;;1.07;;
11763;SDS011;5939;56.522;14.950;2024-01-15T08:52:25;3.13;;;1.10;;
11763;SDS011;5939;56.522;14.950;2024-01-15T08:54:51;4.63;;;1.10;;
11763;SDS011;5939;56.522;14.950;2024-01-15T08:57:17;3.43;;;1.27;;
11763;SDS011;5939;56.522;14.950;2024-01-15T08:59:42;3.33;;;1.10;;
11763;SDS011;5939;56.522;14.950;2024-01-15T09:02:08;3.57;;;1.50;;
11763;SDS011;5939;56.522;14.950;2024-01-15T09:04:34;3.13;;;1.17;;
11763;SDS011;5939;56.522;14.950;2024-01-15T09:06:59;2.50;;;1.10;;
11763;SDS011;5939;56.522;14.950;2024-01-15T09:09:25;3.17;;;1.30;;
11763;SDS011;5939;56.522;14.950;2024-01-15T09:11:51;1.43;;;0.87;;
11763;SDS011;5939;56.522;14.950;2024-01-15T09:14:17;1.10;;;0.97;;
11763;SDS011;5939;56.522;14.950;2024-01-15T09:16:43;1.23;;;0.90;;
11763;SDS011;5939;56.522;14.950;2024-01-15T09:19:08;1.53;;;0.80;;
11763;SDS011;5939;56.522;14.950;2024-01-15T09:21:34;1.27;;;0.80;;
11763;SDS011;5939;56.522;14.950;2024-01-15T09:24:00;0.77;;;0.70;;
11763;SDS011;5939;56.522;14.950;2024-01-15T09:26:25;1.20;;;0.73;;
11763;SDS011;5939;56.522;14.950;2024-01-15T09:28:51;1.40;;;0.80;;
11763;SDS011;5939;56.522;14.950;2024-01-15T09:31:17;1.47;;;0.80;;
11763;SDS011;5939;56.522;14.950;2024-01-15T09:33:44;0.90;;;0.80;;
11763;SDS011;5939;56.522;14.950;2024-01-15T09:36:10;0.60;;;0.60;;
11763;SDS011;5939;56.522;14.950;2024-01-15T09:38:36;0.67;;;0.67;;
11763;SDS011;5939;56.522;14.950;2024-01-15T09:41:02;0.70;;;0.70;;
11763;SDS011;5939;56.522;14.950;2024-01-15T09:43:27;0.60;;;0.60;;
11763;SDS011;5939;56.522;14.950;2024-01-15T09:45:53;0.40;;;0.40;;
11763;SDS011;5939;56.522;14.950;2024-01-15T09:48:19;1.03;;;0.70;;
11763;SDS011;5939;56.522;14.950;2024-01-15T09:50:45;0.83;;;0.70;;
11763;SDS011;5939;56.522;14.950;2024-01-15T09:53:11;1.00;;;0.60;;
11763;SDS011;5939;56.522;14.950;2024-01-15T09:55:39;0.50;;;0.50;;
11763;SDS011;5939;56.522;14.950;2024-01-15T09:58:06;0.60;;;0.50;;
11763;SDS011;5939;56.522;14.950;2024-01-15T10:00:33;0.60;;;0.60;;
11763;SDS011;5939;56.522;14.950;2024-01-15T10:03:03;0.53;;;0.53;;
11763;SDS011;5939;56.522;14.950;2024-01-15T10:05:31;0.60;;;0.60;;
11763;SDS011;5939;56.522;14.950;2024-01-15T10:07:57;0.60;;;0.50;;
11763;SDS011;5939;56.522;14.950;2024-01-15T10:10:27;0.57;;;0.57;;
11763;SDS011;5939;56.522;14.950;2024-01-15T10:12:52;0.97;;;0.50;;
11763;SDS011;5939;56.522;14.950;2024-01-15T10:15:22;0.60;;;0.60;;
11763;SDS011;5939;56.522;14.950;2024-01-15T10:17:48;2.40;;;1.00;;
11763;SDS011;5939;56.522;14.950;2024-01-15T10:20:15;0.60;;;0.60;;
11763;SDS011;5939;56.522;14.950;2024-01-15T10:22:41;1.23;;;0.50;;
11763;SDS011;5939;56.522;14.950;2024-01-15T10:25:14;2.27;;;1.30;;
11763;SDS011;5939;56.522;14.950;2024-01-15T10:27:40;1.57;;;0.97;;
11763;SDS011;5939;56.522;14.950;2024-01-15T10:30:07;1.93;;;1.20;;
11763;SDS011;5939;56.522;14.950;2024-01-15T10:32:33;2.10;;;1.63;;
11763;SDS011;5939;56.522;14.950;2024-01-15T10:34:59;3.17;;;1.97;;
11763;SDS011;5939;56.522;14.950;2024-01-15T10:37:25;1.97;;;1.40;;
11763;SDS011;5939;56.522;14.950;2024-01-15T10:39:52;1.77;;;1.00;;
11763;SDS011;5939;56.522;14.950;2024-01-15T10:42:17;1.83;;;1.10;;
11763;SDS011;5939;56.522;14.950;2024-01-15T10:44:43;1.60;;;1.00;;
11763;SDS011;5939;56.522;14.950;2024-01-15T10:47:12;1.53;;;1.10;;
11763;SDS011;5939;56.522;14.950;2024-01-15T10:49:38;1.37;;;1.17;;
11763;SDS011;5939;56.522;14.950;2024-01-15T10:52:04;1.30;;;1.00;;
11763;SDS011;5939;56.522;14.950;2024-01-15T10:54:31;1.00;;;0.90;;
11763;SDS011;5939;56.522;14.950;2024-01-15T10:56:57;1.10;;;0.80;;
11763;SDS011;5939;56.522;14.950;2024-01-15T10:59:23;1.10;;;1.00;;
11763;SDS011;5939;56.522;14.950;2024-01-15T11:01:52;1.73;;;1.07;;
11763;SDS011;5939;56.522;14.950;2024-01-15T11:04:19;0.93;;;0.90;;
11763;SDS011;5939;56.522;14.950;2024-01-15T11:06:47;3.93;;;1.00;;
11763;SDS011;5939;56.522;14.950;2024-01-15T11:09:15;1.17;;;1.00;;
11763;SDS011;5939;56.522;14.950;2024-01-15T11:11:46;0.80;;;0.80;;
11763;SDS011;5939;56.522;14.950;2024-01-15T11:17:10;1.70;;;1.00;;
11763;SDS011;5939;56.522;14.950;2024-01-15T11:19:38;2.03;;;1.20;;
11763;SDS011;5939;56.522;14.950;2024-01-15T11:24:55;1.60;;;0.93;;
11763;SDS011;5939;56.522;14.950;2024-01-15T11:27:40;2.40;;;1.20;;
11763;SDS011;5939;56.522;14.950;2024-01-15T11:30:11;2.17;;;1.40;;
11763;SDS011;5939;56.522;14.950;2024-01-15T11:32:37;1.10;;;0.97;;
11763;SDS011;5939;56.522;14.950;2024-01-15T11:35:06;1.50;;;0.90;;
11763;SDS011;5939;56.522;14.950;2024-01-15T11:40:20;1.93;;;1.00;;
11763;SDS011;5939;56.522;14.950;2024-01-15T11:42:47;2.47;;;1.00;;
11763;SDS011;5939;56.522;14.950;2024-01-15T11:45:15;2.27;;;1.37;;
11763;SDS011;5939;56.522;14.950;2024-01-15T11:50:54;3.80;;;1.23;;
11763;SDS011;5939;56.522;14.950;2024-01-15T11:53:43;2.73;;;1.10;;
11763;SDS011;5939;56.522;14.950;2024-01-15T11:56:15;5.53;;;1.30;;
11763;SDS011;5939;56.522;14.950;2024-01-15T11:58:42;1.80;;;1.17;;
11763;SDS011;5939;56.522;14.950;2024-01-15T12:01:08;6.23;;;4.60;;
11763;SDS011;5939;56.522;14.950;2024-01-15T12:03:35;5.17;;;3.90;;
11763;SDS011;5939;56.522;14.950;2024-01-15T12:06:01;13.00;;;9.90;;
11763;SDS011;5939;56.522;14.950;2024-01-15T12:08:26;13.47;;;9.73;;
11763;SDS011;5939;56.522;14.950;2024-01-15T12:10:52;12.87;;;9.17;;
11763;SDS011;5939;56.522;14.950;2024-01-15T12:13:18;10.57;;;8.10;;
11763;SDS011;5939;56.522;14.950;2024-01-15T12:15:45;8.87;;;6.67;;
11763;SDS011;5939;56.522;14.950;2024-01-15T12:18:13;9.20;;;6.23;;
11763;SDS011;5939;56.522;14.950;2024-01-15T12:20:40;8.53;;;6.47;;
11763;SDS011;5939;56.522;14.950;2024-01-15T12:23:07;9.07;;;4.97;;
11763;SDS011;5939;56.522;14.950;2024-01-15T12:25:35;6.63;;;4.80;;
11763;SDS011;5939;56.522;14.950;2024-01-15T12:28:01;5.57;;;4.03;;
11763;SDS011;5939;56.522;14.950;2024-01-15T12:30:27;5.73;;;3.90;;
11763;SDS011;5939;56.522;14.950;2024-01-15T12:32:54;4.97;;;3.73;;
11763;SDS011;5939;56.522;14.950;2024-01-15T12:35:20;5.10;;;2.97;;
11763;SDS011;5939;56.522;14.950;2024-01-15T12:37:47;4.07;;;3.13;;
11763;SDS011;5939;56.522;14.950;2024-01-15T12:40:18;3.30;;;2.60;;
11763;SDS011;5939;56.522;14.950;2024-01-15T12:42:44;2.73;;;2.30;;
11763;SDS011;5939;56.522;14.950;2024-01-15T12:45:11;3.73;;;2.10;;
11763;SDS011;5939;56.522;14.950;2024-01-15T12:47:38;2.90;;;2.33;;
11763;SDS011;5939;56.522;14.950;2024-01-15T12:50:07;3.13;;;1.93;;
11763;SDS011;5939;56.522;14.950;2024-01-15T12:52:37;3.27;;;2.07;;
11763;SDS011;5939;56.522;14.950;2024-01-15T12:55:06;2.13;;;1.63;;
11763;SDS011;5939;56.522;14.950;2024-01-15T12:57:35;3.03;;;2.30;;
11763;SDS011;5939;56.522;14.950;2024-01-15T13:00:01;2.23;;;1.50;;
11763;SDS011;5939;56.522;14.950;2024-01-15T13:02:32;1.77;;;1.53;;
11763;SDS011;5939;56.522;14.950;2024-01-15T13:04:58;1.80;;;1.40;;
11763;SDS011;5939;56.522;14.950;2024-01-15T13:07:25;1.30;;;1.20;;
11763;SDS011;5939;56.522;14.950;2024-01-15T13:09:50;2.57;;;1.43;;
11763;SDS011;5939;56.522;14.950;2024-01-15T13:12:19;3.63;;;1.80;;
11763;SDS011;5939;56.522;14.950;2024-01-15T13:14:45;2.10;;;1.50;;
11763;SDS011;5939;56.522;14.950;2024-01-15T13:17:12;2.13;;;1.30;;
11763;SDS011;5939;56.522;14.950;2024-01-15T13:19:39;2.10;;;1.10;;
11763;SDS011;5939;56.522;14.950;2024-01-15T13:22:05;2.97;;;1.10;;
11763;SDS011;5939;56.522;14.950;2024-01-15T13:24:33;1.37;;;1.20;;
11763;SDS011;5939;56.522;14.950;2024-01-15T13:26:58;1.33;;;1.00;;
11763;SDS011;5939;56.522;14.950;2024-01-15T13:29:25;5.27;;;4.03;;
11763;SDS011;5939;56.522;14.950;2024-01-15T13:31:50;3.27;;;2.20;;
11763;SDS011;5939;56.522;14.950;2024-01-15T13:34:16;5.83;;;2.97;;
11763;SDS011;5939;56.522;14.950;2024-01-15T13:36:42;4.43;;;3.43;;
11763;SDS011;5939;56.522;14.950;2024-01-15T13:39:07;4.63;;;2.63;;
11763;SDS011;5939;56.522;14.950;2024-01-15T13:41:34;3.90;;;2.90;;
11763;SDS011;5939;56.522;14.950;2024-01-15T13:44:00;2.43;;;2.20;;
11763;SDS011;5939;56.522;14.950;2024-01-15T13:46:26;2.93;;;2.20;;
11763;SDS011;5939;56.522;14.950;2024-01-15T13:48:51;4.17;;;2.03;;
11763;SDS011;5939;56.522;14.950;2024-01-15T13:51:18;1.57;;;1.40;;
11763;SDS011;5939;56.522;14.950;2024-01-15T13:53:44;2.10;;;1.40;;
11763;SDS011;5939;56.522;14.950;2024-01-15T13:56:09;2.20;;;1.70;;
11763;SDS011;5939;56.522;14.950;2024-01-15T13:58:35;1.30;;;1.20;;
11763;SDS011;5939;56.522;14.950;2024-01-15T14:01:02;1.60;;;1.20;;
11763;SDS011;5939;56.522;14.950;2024-01-15T14:03:31;2.53;;;1.50;;
11763;SDS011;5939;56.522;14.950;2024-01-15T14:05:57;3.13;;;1.27;;
11763;SDS011;5939;56.522;14.950;2024-01-15T14:08:23;1.53;;;1.30;;
11763;SDS011;5939;56.522;14.950;2024-01-15T14:10:48;1.67;;;1.00;;
11763;SDS011;5939;56.522;14.950;2024-01-15T14:13:14;2.00;;;1.10;;
11763;SDS011;5939;56.522;14.950;2024-01-15T14:15:40;2.17;;;1.10;;
11763;SDS011;5939;56.522;14.950;2024-01-15T14:18:05;1.10;;;0.87;;
11763;SDS011;5939;56.522;14.950;2024-01-15T14:20:31;1.20;;;1.00;;
11763;SDS011;5939;56.522;14.950;2024-01-15T14:22:58;1.10;;;0.87;;
11763;SDS011;5939;56.522;14.950;2024-01-15T14:25:23;1.53;;;0.90;;
11763;SDS011;5939;56.522;14.950;2024-01-15T14:27:49;2.33;;;1.57;;
11763;SDS011;5939;56.522;14.950;2024-01-15T14:30:15;4.13;;;2.17;;
11763;SDS011;5939;56.522;14.950;2024-01-15T14:32:41;2.97;;;1.70;;
11763;SDS011;5939;56.522;14.950;2024-01-15T14:35:08;4.77;;;3.40;;
11763;SDS011;5939;56.522;14.950;2024-01-15T14:37:39;3.57;;;2.07;;
11763;SDS011;5939;56.522;14.950;2024-01-15T14:40:08;2.43;;;1.50;;
11763;SDS011;5939;56.522;14.950;2024-01-15T14:42:35;3.53;;;1.77;;
11763;SDS011;5939;56.522;14.950;2024-01-15T14:45:01;3.07;;;1.37;;
11763;SDS011;5939;56.522;14.950;2024-01-15T14:47:36;1.37;;;1.20;;
11763;SDS011;5939;56.522;14.950;2024-01-15T14:50:06;1.57;;;1.07;;
11763;SDS011;5939;56.522;14.950;2024-01-15T14:52:32;1.20;;;1.10;;
11763;SDS011;5939;56.522;14.950;2024-01-15T14:54:59;1.57;;;1.10;;
11763;SDS011;5939;56.522;14.950;2024-01-15T14:57:24;2.07;;;1.13;;